Time;durP1;ratioP1;P1;durP2;ratioP2;P2;SDS_P1;SDS_P2;PMS_P1;PMS_P2;Temp;Humidity;BMP_temperature;BMP_pressure;BME280_temperature;BME280_humidity;BME280_pressure;Samples;Min_cycle;Max_cycle;Signal;HPM_P1;HPM_P2
2022/05/19 01:29:41;;;;;;;3.17;1.90;;;;;;;18.21;43.77;97153.38;6114760;23;19924;-81
2022/05/19 01:32:23;;;;;;;4.63;1.98;;;;;;;18.23;44.59;97151.34;6141414;23;20363;-80
2022/05/19 01:34:50;;;;;;;2.60;2.03;;;;;;;18.24;44.20;97148.50;6139917;23;20060;-79
2022/05/19 01:37:18;;;;;;;2.88;1.90;;;;;;;18.24;43.71;97143.22;6138542;23;20032;-79
2022/05/19 01:39:50;;;;;;;3.97;2.00;;;;;;;18.23;43.44;97140.78;6138393;23;20033;-83
2022/05/19 01:42:29;;;;;;;2.15;1.90;;;;;;;18.22;43.39;97139.16;6139781;23;20069;-82
2022/05/19 01:45:05;;;;;;;2.63;1.80;;;;;;;18.21;43.07;97140.19;6140215;23;20061;-81
2022/05/19 01:47:40;;;;;;;3.75;1.73;;;;;;;18.21;42.96;97137.53;6138761;23;20104;-78
2022/05/19 01:50:15;;;;;;;6.68;1.90;;;;;;;18.21;43.52;97137.53;6138599;23;20462;-80
2022/05/19 01:52:49;;;;;;;3.83;2.00;;;;;;;18.20;43.17;97138.59;6139105;23;20077;-81
2022/05/19 01:55:23;;;;;;;5.20;2.15;;;;;;;18.19;43.36;97134.31;6140738;23;20056;-80
2022/05/19 01:57:55;;;;;;;4.10;2.03;;;;;;;18.20;43.51;97139.38;6146700;23;20029;-80
2022/05/19 02:00:26;;;;;;;3.97;2.10;;;;;;;18.20;43.90;97131.47;6145369;23;20050;-80
2022/05/19 02:02:59;;;;;;;2.30;2.00;;;;;;;18.18;43.75;97133.50;6146623;23;20018;-79
2022/05/19 02:05:36;;;;;;;2.42;2.20;;;;;;;18.16;44.05;97129.47;6147085;23;20307;-81
2022/05/19 02:08:08;;;;;;;4.80;2.72;;;;;;;18.07;44.05;97137.66;6146557;23;20029;-79
2022/05/19 02:10:40;;;;;;;4.43;2.58;;;;;;;17.98;44.51;97144.25;6144853;23;20421;-79
2022/05/19 02:13:08;;;;;;;;;;;;;;;17.90;44.58;97132.09;6145630;23;20074;-79
2022/05/19 02:15:42;;;;;;;7.32;2.75;;;;;;;17.84;44.89;97132.97;6145149;23;19901;-78
2022/05/19 02:18:10;;;;;;;3.92;2.30;;;;;;;17.80;45.07;97130.94;6142352;23;20018;-78
2022/05/19 02:20:41;;;;;;;3.42;2.80;;;;;;;17.75;45.26;97133.41;6142999;23;20101;-79
2022/05/19 02:23:10;;;;;;;3.25;2.85;;;;;;;17.72;45.28;97126.75;6142963;23;20025;-79
2022/05/19 02:25:42;;;;;;;3.10;2.60;;;;;;;17.71;45.37;97127.78;6143322;23;20037;-78
2022/05/19 02:28:15;;;;;;;4.82;3.17;;;;;;;17.69;45.29;97127.19;6145218;23;20025;-79
2022/05/19 02:30:44;;;;;;;3.58;2.97;;;;;;;17.67;45.44;97135.31;6145882;23;20081;-78
2022/05/19 02:33:13;;;;;;;2.67;2.22;;;;;;;17.65;44.96;97131.25;6146210;23;20078;-78
2022/05/19 02:35:41;;;;;;;2.33;2.13;;;;;;;17.63;45.20;97128.84;6147453;23;20105;-80
2022/05/19 02:38:09;;;;;;;4.10;3.05;;;;;;;17.62;45.28;97129.88;6145822;23;20042;-79
2022/05/19 02:40:39;;;;;;;2.58;2.17;;;;;;;17.60;45.15;97129.28;6146675;23;20498;-78
2022/05/19 02:43:07;;;;;;;5.85;2.70;;;;;;;17.61;45.55;97128.22;6145995;23;20077;-79
2022/05/19 02:45:36;;;;;;;3.80;2.25;;;;;;;17.62;45.49;97129.88;6146020;23;20406;-78
2022/05/19 02:48:07;;;;;;;4.90;2.30;;;;;;;17.63;45.57;97131.47;6145303;23;20033;-81
2022/05/19 02:50:36;;;;;;;4.70;2.25;;;;;;;17.63;45.49;97128.84;6146336;23;20073;-79
2022/05/19 02:53:04;;;;;;;8.45;2.40;;;;;;;17.65;45.49;97128.63;6146013;23;20074;-79
2022/05/19 02:55:31;;;;;;;2.63;2.00;;;;;;;17.64;45.46;97116.44;6146778;23;20030;-79
2022/05/19 02:57:59;;;;;;;4.28;2.50;;;;;;;17.63;45.21;97126.19;6144244;23;20026;-79
2022/05/19 03:00:27;;;;;;;4.22;2.30;;;;;;;17.60;45.00;97121.34;6144723;23;20022;-78
2022/05/19 03:02:57;;;;;;;6.95;2.28;;;;;;;17.59;44.92;97124.19;6143603;23;20026;-79
2022/05/19 03:05:29;;;;;;;3.15;2.45;;;;;;;17.56;44.92;97135.16;6143820;23;20041;-82
2022/05/19 03:08:04;;;;;;;2.67;2.03;;;;;;;17.55;44.90;97139.63;6145001;23;20390;-80
2022/05/19 03:10:31;;;;;;;2.95;2.50;;;;;;;17.55;44.91;97134.34;6145539;23;20386;-80
2022/05/19 03:12:59;;;;;;;2.17;1.92;;;;;;;17.57;44.84;97124.41;6146441;23;20049;-79
2022/05/19 03:15:27;;;;;;;2.45;2.25;;;;;;;17.56;44.80;97125.44;6145610;23;20109;-79
2022/05/19 03:17:54;;;;;;;3.38;2.35;;;;;;;17.56;44.99;97120.16;6142075;23;20033;-79
2022/05/19 03:20:23;;;;;;;3.08;2.40;;;;;;;17.54;44.87;97132.75;6143900;23;20045;-79
2022/05/19 03:22:51;;;;;;;4.60;2.22;;;;;;;17.53;44.67;97128.47;6144535;23;20106;-78
2022/05/19 03:25:19;;;;;;;4.13;2.25;;;;;;;17.48;44.45;97130.97;6143567;23;20033;-77
2022/05/19 03:27:46;;;;;;;2.58;2.00;;;;;;;17.42;44.51;97132.59;6141317;23;20036;-81
2022/05/19 03:30:17;;;;;;;3.42;2.17;;;;;;;17.41;44.63;97127.56;6142912;23;20048;-78
2022/05/19 03:32:45;;;;;;;2.40;2.20;;;;;;;17.41;44.42;97135.47;6142377;23;20026;-79
2022/05/19 03:35:14;;;;;;;3.30;2.28;;;;;;;17.39;44.33;97133.03;6143233;23;20030;-79
2022/05/19 03:37:42;;;;;;;2.40;2.10;;;;;;;17.38;44.35;97139.34;6141203;23;20025;-77
2022/05/19 03:40:14;;;;;;;2.92;2.33;;;;;;;17.36;43.93;97140.56;6142161;23;20022;-77
2022/05/19 03:42:42;;;;;;;2.65;2.15;;;;;;;17.31;43.96;97143.81;6140408;23;20074;-80
2022/05/19 03:45:10;;;;;;;2.65;2.15;;;;;;;17.26;44.11;97131.28;6140570;23;20040;-80
2022/05/19 03:47:37;;;;;;;7.68;2.47;;;;;;;17.23;44.05;97130.88;6140084;23;20069;-81
2022/05/19 03:50:06;;;;;;;3.80;2.50;;;;;;;17.18;44.17;97122.81;6143983;23;20075;-80
2022/05/19 03:52:39;;;;;;;4.10;2.10;;;;;;;17.15;44.29;97118.78;6143925;23;20021;-81
2022/05/19 03:55:08;;;;;;;5.97;2.40;;;;;;;17.14;43.96;97117.13;6144623;23;20032;-82
2022/05/19 03:57:37;;;;;;;1.92;1.83;;;;;;;17.14;44.13;97127.69;6143041;23;20018;-80
2022/05/19 04:00:06;;;;;;;3.05;2.10;;;;;;;17.14;44.53;97127.69;6145292;23;20485;-79
2022/05/19 04:02:34;;;;;;;4.15;2.13;;;;;;;17.16;43.95;97135.38;6144816;23;20057;-79
2022/05/19 04:05:03;;;;;;;3.97;2.50;;;;;;;17.11;43.83;97135.22;6142710;23;20080;-82
2022/05/19 04:07:31;;;;;;;3.15;2.35;;;;;;;17.04;44.13;97128.16;6143155;23;20053;-82
2022/05/19 04:10:01;;;;;;;4.30;2.33;;;;;;;17.00;44.42;97131.41;6142027;23;20041;-88
2022/05/19 04:12:29;;;;;;;3.10;2.25;;;;;;;16.99;44.45;97135.03;6142968;23;20038;-80
2022/05/19 04:14:57;;;;;;;5.20;2.40;;;;;;;16.96;44.65;97133.66;6138907;23;20073;-80
2022/05/19 04:17:25;;;;;;;3.38;2.00;;;;;;;16.94;44.53;97138.31;6136750;23;20069;-78
2022/05/19 04:19:53;;;;;;;2.72;2.40;;;;;;;16.92;44.50;97140.34;6138554;23;20061;-78
2022/05/19 04:22:20;;;;;;;3.05;2.40;;;;;;;16.92;44.67;97142.19;6140067;23;20359;-84
2022/05/19 04:24:48;;;;;;;3.75;2.08;;;;;;;16.92;44.52;97144.81;6141386;23;20187;-77
2022/05/19 04:27:16;;;;;;;4.85;2.90;;;;;;;16.92;44.72;97150.09;6139212;23;20042;-81
2022/05/19 04:29:44;;;;;;;3.85;2.72;;;;;;;16.92;44.77;97150.09;6136896;23;20105;-81
2022/05/19 04:32:12;;;;;;;4.57;2.53;;;;;;;16.92;45.06;97150.09;6135931;23;20354;-84
2022/05/19 04:34:40;;;;;;;6.13;2.55;;;;;;;16.87;44.94;97154.16;6136939;23;20022;-78
2022/05/19 04:37:08;;;;;;;5.47;2.20;;;;;;;16.82;45.18;97146.06;6136423;23;20098;-79
2022/05/19 04:39:36;;;;;;;3.72;2.50;;;;;;;16.77;45.29;97148.50;6136436;23;20032;-83
2022/05/19 04:42:06;;;;;;;4.88;2.83;;;;;;;16.74;45.23;97156.81;6137848;23;20022;-79
2022/05/19 04:44:34;;;;;;;5.03;2.28;;;;;;;16.71;45.14;97151.97;6135067;23;20057;-82
2022/05/19 04:47:03;;;;;;;4.10;2.78;;;;;;;16.70;45.56;97150.31;6134998;23;20117;-79
2022/05/19 04:49:33;;;;;;;4.30;2.35;;;;;;;16.71;45.25;97154.59;6135679;23;20018;-79
2022/05/19 04:52:00;;;;;;;3.63;2.30;;;;;;;16.74;45.55;97156.00;6135391;23;20028;-79
2022/05/19 04:54:28;;;;;;;2.55;2.33;;;;;;;16.75;45.24;97161.06;6133589;23;20362;-79
2022/05/19 04:56:55;;;;;;;2.70;2.28;;;;;;;16.73;45.40;97155.19;6132871;23;20030;-77
2022/05/19 04:59:23;;;;;;;6.50;2.63;;;;;;;16.72;45.28;97150.94;6136358;23;20030;-78
2022/05/19 05:01:51;;;;;;;5.60;2.35;;;;;;;16.74;45.25;97156.81;6135857;23;20042;-80
2022/05/19 05:04:19;;;;;;;2.50;2.03;;;;;;;16.76;45.15;97144.22;6140823;23;20025;-81
2022/05/19 05:06:48;;;;;;;2.78;2.30;;;;;;;16.76;45.13;97146.88;6145241;23;20482;-78
2022/05/19 05:09:15;;;;;;;2.60;2.13;;;;;;;16.77;45.29;97153.78;6146603;23;20041;-78
2022/05/19 05:11:43;;;;;;;7.00;2.00;;;;;;;16.78;45.21;97155.38;6146142;23;20049;-78
2022/05/19 05:14:11;;;;;;;2.95;2.30;;;;;;;16.78;45.46;97155.38;6145567;23;20074;-79
2022/05/19 05:16:39;;;;;;;3.67;2.47;;;;;;;16.79;45.35;97157.00;6146556;23;20045;-80
2022/05/19 05:19:07;;;;;;;3.45;2.45;;;;;;;16.79;45.27;97157.00;6146682;23;20097;-79
2022/05/19 05:21:34;;;;;;;15.93;8.50;;;;;;;16.78;45.83;97155.38;6146836;23;20033;-78
2022/05/19 05:24:04;;;;;;;4.18;3.17;;;;;;;16.79;45.61;97171.97;6146589;23;20044;-79
2022/05/19 05:26:31;;;;;;;6.57;2.67;;;;;;;16.80;45.69;97163.91;6144876;23;20020;-79
2022/05/19 05:28:59;;;;;;;13.98;2.95;;;;;;;16.84;45.62;97164.31;6144652;23;20049;-80
2022/05/19 05:31:26;;;;;;;3.47;2.00;;;;;;;16.85;45.92;97161.44;6142646;23;20081;-78
2022/05/19 05:33:54;;;;;;;4.18;2.08;;;;;;;16.87;45.50;97174.44;6142193;23;20025;-78
2022/05/19 05:36:22;;;;;;;3.00;2.55;;;;;;;16.88;45.80;97168.97;6139108;23;20049;-79
2022/05/19 05:38:49;;;;;;;2.50;2.17;;;;;;;16.91;45.77;97170.38;6139823;23;20053;-78
2022/05/19 05:41:18;;;;;;;3.53;2.30;;;;;;;16.93;45.69;97164.91;6141503;23;20085;-79
2022/05/19 05:43:46;;;;;;;8.57;2.72;;;;;;;16.91;46.07;97159.81;6140152;23;20109;-80
2022/05/19 05:46:16;;;;;;;3.40;2.20;;;;;;;16.89;46.28;97170.56;6141322;23;20077;-77
2022/05/19 05:48:45;;;;;;;5.40;2.20;;;;;;;16.91;46.45;97167.72;6141563;23;20021;-78
2022/05/19 05:51:14;;;;;;;6.18;2.08;;;;;;;16.93;46.57;97167.53;6139462;23;20022;-78
2022/05/19 05:53:43;;;;;;;3.88;2.00;;;;;;;16.94;46.68;97169.13;6138096;23;20082;-78
2022/05/19 05:56:13;;;;;;;3.22;2.20;;;;;;;16.96;46.82;97165.28;6136936;23;20045;-78
2022/05/19 05:58:43;;;;;;;3.10;2.55;;;;;;;16.98;47.10;97163.25;6137401;23;20025;-77
2022/05/19 06:01:13;;;;;;;2.72;2.30;;;;;;;17.01;47.05;97169.91;6138652;23;20097;-77
2022/05/19 06:03:40;;;;;;;4.45;2.38;;;;;;;17.04;46.96;97164.25;6138106;23;20022;-79
2022/05/19 06:06:08;;;;;;;2.90;2.42;;;;;;;17.07;47.05;97164.63;6141359;23;20049;-79
2022/05/19 06:08:36;;;;;;;4.20;2.13;;;;;;;17.14;47.04;97169.06;6145687;23;20033;-81
2022/05/19 06:11:03;;;;;;;3.55;2.38;;;;;;;17.17;47.09;97169.47;6146511;23;20064;-79
2022/05/19 06:13:31;;;;;;;3.03;2.10;;;;;;;17.24;46.96;97170.22;6144738;23;20077;-79
2022/05/19 06:16:00;;;;;;;3.90;2.20;;;;;;;17.29;47.19;97167.78;6144032;23;20049;-79
2022/05/19 06:18:28;;;;;;;2.97;2.33;;;;;;;17.33;47.29;97170.78;6143264;23;20021;-80
2022/05/19 06:20:55;;;;;;;5.68;3.03;;;;;;;17.36;47.37;97159.00;6142156;23;20026;-78
2022/05/19 06:23:23;;;;;;;16.90;3.65;;;;;;;17.38;47.50;97154.34;6142849;23;20049;-78
2022/05/19 06:25:51;;;;;;;8.52;2.75;;;;;;;17.41;47.75;97159.22;6140248;23;20101;-78
2022/05/19 06:28:18;;;;;;;8.93;3.33;;;;;;;17.47;47.60;97159.16;6145708;23;20073;-83
2022/05/19 06:30:46;;;;;;;6.82;2.65;;;;;;;17.51;47.78;97159.53;6146422;23;20037;-80
2022/05/19 06:33:17;;;;;;;5.00;2.83;;;;;;;17.53;47.99;97162.78;6147104;23;20077;-79
2022/05/19 06:35:46;;;;;;;4.32;2.25;;;;;;;17.57;47.99;97149.97;6147907;23;20022;-79
2022/05/19 06:38:13;;;;;;;6.65;2.38;;;;;;;17.59;47.90;97154.00;6147818;23;20077;-79
2022/05/19 06:40:42;;;;;;;7.70;2.58;;;;;;;17.61;48.40;97154.63;6147427;23;20097;-79
2022/05/19 06:43:10;;;;;;;6.32;2.65;;;;;;;17.65;48.09;97161.09;6146352;23;20049;-78
2022/05/19 06:45:38;;;;;;;8.98;2.90;;;;;;;17.71;48.34;97160.25;6146422;23;20014;-81
2022/05/19 06:48:07;;;;;;;6.32;2.78;;;;;;;17.77;48.13;97161.19;6145386;23;20061;-80
2022/05/19 06:50:36;;;;;;;7.22;2.60;;;;;;;17.83;48.03;97163.03;6146412;23;20049;-79
2022/05/19 06:53:04;;;;;;;9.55;2.60;;;;;;;17.90;48.11;97157.69;6145405;23;20073;-78
2022/05/19 06:55:33;;;;;;;9.32;2.78;;;;;;;17.98;48.05;97164.56;6147247;23;20098;-82
2022/05/19 06:58:01;;;;;;;11.57;2.20;;;;;;;18.07;47.92;97168.53;6145783;23;20357;-79
2022/05/19 07:00:35;;;;;;;7.03;2.70;;;;;;;18.16;47.85;97169.06;6146003;23;20078;-80
2022/05/19 07:03:03;;;;;;;4.88;2.47;;;;;;;18.24;47.98;97168.81;6145421;23;20065;-80
2022/05/19 07:05:34;;;;;;;6.97;2.50;;;;;;;18.31;48.06;97166.91;6149475;23;20025;-79
2022/05/19 07:08:04;;;;;;;5.95;2.53;;;;;;;18.41;47.96;97161.94;6148788;23;20045;-79
2022/05/19 07:10:32;;;;;;;4.65;2.33;;;;;;;18.51;47.81;97172.00;6148821;23;20045;-79
2022/05/19 07:12:59;;;;;;;7.63;2.70;;;;;;;18.61;47.82;97168.88;6147978;23;20077;-80
2022/05/19 07:15:28;;;;;;;3.35;2.60;;;;;;;18.70;47.76;97167.56;6147623;23;20029;-81
2022/05/19 07:17:55;;;;;;;7.20;2.42;;;;;;;18.81;47.82;97173.97;6145906;23;20072;-81
2022/05/19 07:23:14;;;;;;;14.77;8.63;;;;;;;19.03;47.97;97187.56;6141137;23;20048;-81
2022/05/19 07:25:43;;;;;;;5.15;2.63;;;;;;;19.13;47.77;97179.91;6144799;23;20056;-81
2022/05/19 07:28:12;;;;;;;4.90;2.55;;;;;;;19.25;47.85;97185.28;6144353;23;20034;-81
2022/05/19 11:03:14;;;;;;;3.08;2.03;;;;;;;27.61;37.68;97096.34;6011078;23;20035;-85
2022/05/19 11:05:52;;;;;;;2.95;1.60;;;;;;;27.67;37.82;97092.56;6065353;23;20007;-86
2022/05/19 11:08:32;;;;;;;3.08;1.52;;;;;;;27.72;37.30;97093.31;6064691;23;20043;-88
2022/05/19 11:11:05;;;;;;;3.58;1.80;;;;;;;27.81;36.92;97100.75;6064827;23;20071;-87
2022/05/19 11:13:50;;;;;;;4.80;2.00;;;;;;;27.85;36.37;97091.09;6064817;23;20011;-87
2022/05/19 11:16:28;;;;;;;3.05;1.75;;;;;;;27.90;36.70;97094.56;6064368;23;20208;-87
2022/05/19 11:19:04;;;;;;;1.90;1.75;;;;;;;27.96;36.76;97102.53;6058196;23;20023;-85
2022/05/19 11:21:37;;;;;;;2.20;1.95;;;;;;;28.01;36.63;97099.81;6057383;23;20020;-86
2022/05/19 11:24:17;;;;;;;3.33;2.88;;;;;;;28.05;36.87;97100.84;6054844;23;20063;-85
2022/05/19 11:26:51;;;;;;;3.80;2.13;;;;;;;28.12;37.48;97110.19;6051086;23;20019;-87
2022/05/19 11:29:31;;;;;;;2.17;1.88;;;;;;;28.15;37.62;97100.75;6053557;23;20024;-86
2022/05/19 11:32:07;;;;;;;4.25;2.15;;;;;;;28.21;37.19;97105.00;6048254;23;20020;-85
2022/05/19 11:34:43;;;;;;;2.65;1.92;;;;;;;28.23;36.78;97102.84;6111939;23;20022;-85
2022/05/19 11:37:22;;;;;;;4.47;2.05;;;;;;;28.24;35.78;97117.84;6135886;23;20093;-86
2022/05/19 11:40:06;;;;;;;4.72;2.05;;;;;;;28.27;36.25;97111.91;6130851;23;20030;-85
2022/05/19 11:42:43;;;;;;;1.77;1.63;;;;;;;28.32;36.29;97111.06;6130722;23;20450;-86
2022/05/19 11:45:20;;;;;;;5.30;2.05;;;;;;;28.33;36.32;97108.09;6132293;23;20395;-84
2022/05/19 11:57:11;;;;;;;1.90;1.80;;;;;;;28.49;36.46;97107.94;6131023;23;20017;-84
2022/05/19 11:59:39;;;;;;;2.28;2.08;;;;;;;28.50;36.57;97106.88;6131249;23;20447;-85
2022/05/19 12:02:09;;;;;;;4.38;2.45;;;;;;;28.53;36.50;97107.13;6133067;23;20022;-85
2022/05/19 12:04:41;;;;;;;4.00;2.22;;;;;;;28.56;36.37;97100.38;6133615;23;20022;-85
2022/05/19 12:07:22;;;;;;;1.60;1.50;;;;;;;28.59;36.23;97097.09;6134420;23;20022;-86
2022/05/19 12:09:56;;;;;;;3.13;2.17;;;;;;;28.61;36.94;97100.31;6135182;23;20040;-84
2022/05/19 12:12:29;;;;;;;2.80;2.20;;;;;;;28.65;36.83;97103.22;6134922;23;20014;-84
2022/05/19 12:15:17;;;;;;;3.63;2.22;;;;;;;28.67;36.56;97096.50;6135902;23;20022;-84
2022/05/19 12:17:53;;;;;;;5.57;2.20;;;;;;;28.71;36.96;97091.31;6135032;23;20470;-86
2022/05/19 12:20:45;;;;;;;2.75;2.05;;;;;;;28.76;36.61;97102.03;6135937;23;20458;-85
2022/05/19 12:23:30;;;;;;;6.38;2.20;;;;;;;28.80;36.06;97096.84;6137293;23;20054;-84
2022/05/19 12:26:05;;;;;;;4.90;2.15;;;;;;;28.83;36.40;97099.00;6135741;23;20537;-85
2022/05/19 12:28:47;;;;;;;3.15;1.80;;;;;;;28.84;35.70;97096.03;6137253;23;20022;-85
2022/05/19 12:34:09;;;;;;;2.00;1.80;;;;;;;28.85;35.98;97094.13;6135195;23;20040;-86
2022/05/19 12:36:42;;;;;;;2.28;2.10;;;;;;;28.85;35.66;97096.81;6136746;23;20026;-86
2022/05/19 12:39:45;;;;;;;3.35;1.73;;;;;;;28.87;35.88;97083.91;6137199;23;20029;-85
2022/05/19 12:42:39;;;;;;;5.75;2.22;;;;;;;28.86;35.20;97074.22;6137947;23;20046;-86
2022/05/19 12:45:22;;;;;;;5.07;1.60;;;;;;;28.84;34.56;97079.09;6136433;23;20014;-86
2022/05/19 12:47:59;;;;;;;3.45;1.92;;;;;;;28.82;34.20;97083.94;6135001;23;20502;-86
2022/05/19 12:50:46;;;;;;;7.88;2.05;;;;;;;28.79;34.70;97073.78;6136440;23;20022;-85
2022/05/19 12:53:41;;;;;;;3.90;1.98;;;;;;;28.80;35.09;97084.25;6135662;23;20308;-85
2022/05/19 12:56:49;;;;;;;2.03;1.70;;;;;;;28.84;35.15;97084.47;6135514;23;20077;-86
2022/05/19 12:59:33;;;;;;;3.78;1.90;;;;;;;28.84;34.82;97079.91;6135740;23;20067;-87
2022/05/19 13:02:05;;;;;;;6.55;1.70;;;;;;;28.86;34.71;97076.91;6137629;23;20033;-87
2022/05/19 13:04:44;;;;;;;2.47;1.88;;;;;;;28.88;34.58;97077.44;6138578;23;20045;-87
2022/05/19 13:07:21;;;;;;;4.15;2.10;;;;;;;28.88;34.92;97086.28;6136978;23;20018;-86
2022/05/19 13:10:00;;;;;;;3.33;1.75;;;;;;;28.88;35.26;97080.13;6136839;23;20014;-87
2022/05/19 13:12:45;;;;;;;4.60;2.65;;;;;;;28.92;35.18;97075.78;6138475;23;20033;-85
2022/05/19 13:15:23;;;;;;;2.92;2.00;;;;;;;28.94;34.76;97063.66;6138753;23;20021;-86
2022/05/19 13:17:53;;;;;;;2.08;1.80;;;;;;;28.97;35.34;97073.00;6137333;23;20041;-86
2022/05/19 13:20:24;;;;;;;4.65;1.67;;;;;;;28.99;35.23;97060.09;6137570;23;20022;-85
2022/05/19 13:23:17;;;;;;;3.30;1.77;;;;;;;29.01;35.09;97065.97;6136742;23;20020;-86
2022/05/19 13:25:50;;;;;;;3.53;2.17;;;;;;;29.01;34.41;97065.97;6137092;23;20033;-87
2022/05/19 15:14:42;;;;;;;3.08;2.05;;;;;;;28.89;33.66;96944.78;6109864;23;20002;-79
2022/05/19 15:17:13;;;;;;;3.78;2.58;;;;;;;28.86;32.69;96937.31;6126149;23;20006;-80
2022/05/19 15:19:42;;;;;;;4.32;1.95;;;;;;;28.86;32.18;96932.75;6126036;23;20023;-80
2022/05/19 15:22:13;;;;;;;3.88;1.90;;;;;;;28.85;31.30;96941.09;6126452;23;20010;-80
2022/05/19 15:24:52;;;;;;;4.05;1.83;;;;;;;28.84;31.24;96934.09;6149294;23;20069;-80
2022/05/19 15:27:23;;;;;;;3.88;2.40;;;;;;;28.82;31.48;96938.97;6147729;23;20010;-79
2022/05/19 15:30:01;;;;;;;3.00;1.67;;;;;;;28.82;31.19;96939.78;6155273;23;20038;-79
2022/05/19 15:32:35;;;;;;;3.20;2.05;;;;;;;28.78;31.35;96936.09;6150264;23;20010;-80
2022/05/19 15:45:51;;;;;;;3.88;1.80;;;;;;;28.70;30.82;96960.91;6070781;22;5736692;-81
2022/05/19 15:48:28;;;;;;;4.35;2.35;;;;;;;28.67;30.49;96961.47;6259476;23;20063;-82
2022/05/19 15:51:06;;;;;;;3.15;1.75;;;;;;;28.64;30.85;96957.47;6285069;23;20019;-82
2022/05/19 15:53:48;;;;;;;4.03;2.33;;;;;;;28.66;30.79;96967.94;6284992;23;20007;-82
2022/05/19 15:56:23;;;;;;;8.60;3.17;;;;;;;28.65;31.46;96980.56;6283748;22;20004;-82
2022/05/19 16:01:50;;;;;;;5.22;2.63;;;;;;;28.65;33.99;96980.56;6188047;23;20092;-80
2022/05/19 16:04:24;;;;;;;7.25;2.83;;;;;;;28.61;34.84;96974.16;6223301;22;20016;-81
2022/05/19 16:06:53;;;;;;;7.63;2.55;;;;;;;28.60;35.08;96979.81;6234761;22;20068;-80
2022/05/19 16:09:25;;;;;;;10.65;2.80;;;;;;;28.54;35.51;96979.09;6193541;23;20020;-80
2022/05/19 16:11:57;;;;;;;4.07;3.08;;;;;;;28.48;36.01;96972.19;6188278;23;20019;-80
2022/05/19 16:14:29;;;;;;;3.22;2.50;;;;;;;28.44;36.02;96979.19;6222551;23;20019;-80
2022/05/19 16:17:09;;;;;;;6.28;3.17;;;;;;;28.38;35.42;96974.97;6215030;23;20005;-80
2022/05/19 16:19:48;;;;;;;4.95;2.58;;;;;;;28.31;34.87;96981.47;6222030;23;20032;-82
2022/05/19 16:22:31;;;;;;;4.82;2.63;;;;;;;28.25;35.13;96977.28;6225268;23;20943;-80
2022/05/19 16:25:04;;;;;;;5.07;2.20;;;;;;;28.22;34.83;96982.41;6222315;23;20004;-80
2022/05/19 16:27:37;;;;;;;6.05;2.35;;;;;;;28.17;35.55;96975.22;6222006;23;20001;-80
2022/05/19 16:30:08;;;;;;;4.28;2.30;;;;;;;28.14;35.42;96978.47;6222037;23;20005;-81
2022/05/19 16:32:44;;;;;;;3.65;2.63;;;;;;;28.11;35.11;96971.00;6221991;23;20029;-80
2022/05/19 16:35:15;;;;;;;3.67;2.22;;;;;;;28.10;35.35;96974.78;6221855;23;20019;-80
2022/05/19 16:37:46;;;;;;;4.40;2.83;;;;;;;28.08;35.36;96979.63;6221791;23;20005;-79
2022/05/19 16:40:16;;;;;;;5.10;2.25;;;;;;;28.04;34.98;96974.03;6221995;23;20025;-80
2022/05/19 16:42:46;;;;;;;3.75;1.73;;;;;;;28.01;34.96;96965.72;6222057;23;20007;-80
2022/05/19 16:50:50;;;;;;;2.63;2.40;;;;;;;27.93;34.42;96965.28;6233008;23;20000;-80
2022/05/19 16:53:19;;;;;;;4.82;2.50;;;;;;;27.91;34.78;96959.41;6245455;23;20052;-80
2022/05/19 16:58:38;;;;;;;9.45;2.30;;;;;;;27.87;34.50;96971.78;6245222;23;20001;-80
2022/05/19 17:03:49;;;;;;;8.85;4.85;;;;;;;27.77;34.88;96965.69;6240894;23;20064;-80
2022/05/19 17:06:20;;;;;;;4.10;2.83;;;;;;;27.73;34.65;96976.19;6244931;23;20013;-80
2022/05/19 17:08:53;;;;;;;;;;;;;;;27.68;34.95;96976.22;6245707;23;20011;-79
2022/05/19 17:11:29;;;;;;;8.80;1.92;;;;;;;27.59;34.76;96968.00;6242473;23;19967;-81
2022/05/19 17:16:43;;;;;;;2.58;2.00;;;;;;;27.47;34.23;96952.31;6240934;23;19926;-80
2022/05/19 17:19:16;;;;;;;4.38;1.95;;;;;;;27.43;34.31;96950.47;6243033;23;20008;-80
2022/05/19 17:21:47;;;;;;;9.35;1.70;;;;;;;27.38;33.46;96955.91;6231053;23;20073;-80
2022/05/19 17:24:22;;;;;;;2.97;1.92;;;;;;;27.30;33.60;96962.66;6245012;23;20031;-81
2022/05/19 17:26:51;;;;;;;4.38;1.48;;;;;;;27.25;32.71;96958.13;6244867;23;20004;-80
2022/05/19 17:29:21;;;;;;;1.20;0.90;;;;;;;27.22;32.00;96955.19;6212893;23;20017;-79
2022/05/19 17:32:01;;;;;;;2.08;1.17;;;;;;;27.17;31.58;96941.84;6214689;23;20017;-81
2022/05/19 17:34:36;;;;;;;6.03;4.20;;;;;;;27.13;31.49;96942.41;6214904;23;20033;-82
2022/05/19 17:37:32;;;;;;;1.98;1.33;;;;;;;27.11;30.72;96944.56;6214823;23;20080;-81
2022/05/19 17:40:09;;;;;;;2.97;0.70;;;;;;;27.09;30.08;96946.72;6214639;23;20008;-82
2022/05/19 17:42:42;;;;;;;1.58;0.73;;;;;;;27.09;30.07;96956.59;6214502;23;20016;-82
2022/05/19 17:45:15;;;;;;;2.88;0.95;;;;;;;27.09;29.92;96945.91;6214455;23;20029;-82
2022/05/19 17:47:45;;;;;;;1.40;0.73;;;;;;;27.09;29.73;96936.00;6214718;23;20021;-82
2022/05/19 17:50:28;;;;;;;0.57;0.52;;;;;;;27.09;29.52;96936.00;6242222;23;20028;-80
2022/05/19 17:53:02;;;;;;;2.10;0.80;;;;;;;27.10;29.35;96937.59;6245027;23;20057;-81
2022/05/19 17:55:39;;;;;;;0.82;0.82;;;;;;;27.10;29.69;96934.13;6244756;23;20028;-80
2022/05/19 17:58:08;;;;;;;1.23;0.90;;;;;;;27.09;29.82;96933.34;6219017;23;20023;-81
2022/05/19 18:00:39;;;;;;;1.77;0.93;;;;;;;27.08;29.71;96934.41;6244622;23;20005;-80
2022/05/19 18:03:08;;;;;;;1.33;1.13;;;;;;;27.06;29.49;96947.25;6244342;23;20019;-80
2022/05/19 18:05:38;;;;;;;1.15;0.60;;;;;;;27.05;29.70;96961.75;6244745;23;20048;-81
2022/05/19 18:08:13;;;;;;;1.08;0.70;;;;;;;27.04;29.72;96976.19;6244572;23;20035;-81
2022/05/19 18:10:44;;;;;;;2.40;0.73;;;;;;;27.04;29.98;96976.19;6244370;23;20027;-81
2022/05/19 18:13:14;;;;;;;2.83;0.70;;;;;;;27.02;30.31;96978.34;6244793;23;20008;-81
2022/05/19 18:18:34;;;;;;;0.55;0.52;;;;;;;26.99;30.89;97015.59;6244701;23;20009;-81
2022/05/19 18:21:05;;;;;;;2.30;1.45;;;;;;;26.96;30.90;97033.03;6213624;23;20017;-81
2022/05/19 18:23:36;;;;;;;3.22;0.68;;;;;;;26.91;30.56;97031.16;6212566;23;20048;-81
2022/05/19 18:29:13;;;;;;;1.05;0.82;;;;;;;26.84;30.39;97024.50;6230452;23;20004;-79
2022/05/19 19:33:58;;;;;;;7.88;2.50;;;;;;;25.11;44.60;97240.69;6154557;23;20092;-79
2022/05/19 19:45:29;;;;;;;6.18;1.95;;;;;;;24.67;45.34;97273.78;6116739;23;20061;-80
2022/05/19 19:53:50;;;;;;;5.35;2.60;;;;;;;24.47;48.36;97244.28;6177350;23;19916;-82
2022/05/19 19:59:10;;;;;;;4.90;3.22;;;;;;;24.23;50.78;97292.59;6170435;22;20034;-80
2022/05/19 20:01:54;;;;;;;4.22;2.47;;;;;;;23.94;52.71;97328.53;6213009;23;20015;-81
2022/05/19 20:04:28;;;;;;;3.65;2.30;;;;;;;23.68;52.62;97295.44;6165815;23;20001;-80
2022/05/19 20:09:55;;;;;;;7.93;2.50;;;;;;;23.33;54.10;97358.66;6165973;23;20032;-79
2022/05/19 20:12:41;;;;;;;5.05;2.53;;;;;;;23.24;55.06;97360.09;6181197;23;20009;-79
2022/05/19 20:18:27;;;;;;;4.70;2.10;;;;;;;23.15;55.99;97372.22;6174098;23;20006;-79
2022/05/19 20:35:48;;;;;;;5.50;3.08;;;;;;;22.41;59.14;97333.22;6124522;23;20058;-80
2022/05/19 20:49:51;;;;;;;11.25;5.40;;;;;;;22.26;62.32;97354.22;6134417;22;20063;-79
2022/05/19 20:55:59;;;;;;;9.90;4.20;;;;;;;22.21;63.93;97345.09;6182435;23;20017;-79
2022/05/19 21:08:04;;;;;;;9.57;3.90;;;;;;;21.70;63.20;97309.59;6182589;23;20017;-79
2022/05/19 21:14:25;;;;;;;9.30;3.75;;;;;;;21.56;63.99;97310.91;6184528;23;20091;-83
2022/05/19 21:17:04;;;;;;;4.57;2.92;;;;;;;21.52;63.95;97312.41;6183757;23;20021;-78
2022/05/19 21:31:58;;;;;;;15.60;3.40;;;;;;;21.32;65.27;97310.13;6202060;23;20022;-79
2022/05/19 21:37:21;;;;;;;7.30;3.35;;;;;;;21.29;65.52;97298.09;6186427;23;20006;-80
2022/05/19 21:40:13;;;;;;;8.43;2.85;;;;;;;21.23;64.23;97295.56;6182414;23;20022;-79
2022/05/19 21:42:52;;;;;;;4.57;3.17;;;;;;;21.11;64.81;97298.25;6181619;23;20030;-80
2022/05/19 21:48:27;;;;;;;5.22;2.88;;;;;;;20.81;64.94;97293.84;6148208;23;20049;-79
2022/05/19 22:02:44;;;;;;;9.65;3.35;;;;;;;20.48;66.51;97303.13;6123723;23;20002;-79
2022/05/19 22:07:32;;;;;;;8.27;2.88;;;;;;;20.47;67.57;97303.38;6125484;23;20007;-79
2022/05/19 22:24:08;;;;;;;4.45;3.00;;;;;;;20.05;67.21;97328.00;6151398;23;20005;-79
2022/05/19 22:34:59;;;;;;;4.68;2.88;;;;;;;19.86;67.68;97313.19;6219385;23;20011;-79
2022/05/19 22:43:32;;;;;;;6.60;3.20;;;;;;;19.92;69.47;97318.41;6149290;23;20057;-79